• Join FlightAware (Why Join?)
  • Login
  • US Flag GB Flag 
05:39 EST


 

Airport Tracker/Info


-or-


 

Live Flight TrackerFlight Track Log ✈ AWE1253 ✈ 01-May-2013 ✈ KPHL - KTPA

Flight Track Log - Related Links

Times and Time Zones

All times are in EDT time to prevent confusion due to time zone crossing. See the AWE1253 flight status page for this flight to view local times or setup timezone preferences in your user account.

Time Position Orientation Groundspeed Altitude Reporting Facility
EDT Latitude Longitude Course Direction KTS MPH feet Rate Location/Type
20:42 39.8833 -75.2167 90° East 155 178 1,100  Level Philadelphia TRACON
20:43 39.8833 -75.1833 90° East 185 213 2,400 2,520 Climbing Philadelphia TRACON
20:44 39.9000 -75.1167 72° East 203 234 5,200 2,640 Climbing Philadelphia TRACON
20:45 39.9667 -75.1333 349° North 271 312 7,500 2,400 Climbing Philadelphia TRACON
20:46 39.9500 -75.2167 255° West 302 348 9,800 780 Climbing Philadelphia TRACON
20:48 39.9006 -75.4844 257° West 363 418 10,000 660 Climbing New York Center
20:49 39.8744 -75.6128 255° West 376 433 11,900 2,160 Climbing New York Center
20:50 39.8483 -75.7406 255° West 376 433 14,400 2,580 Climbing New York Center
20:51 39.7972 -75.8642 242° Southwest 381 438 17,200 2,220 Climbing New York Center
20:52 39.7233 -75.9803 230° Southwest 400 460 19,000 2,160 Climbing New York Center
20:53 39.6511 -76.1042 233° Southwest 421 484 21,500 2,340 Climbing New York Center
20:53 39.6039 -76.1706 227° Southwest 437 503 22,700 1,980 Climbing Washington Center
20:54 39.5219 -76.2992 230° Southwest 435 501 24,700 1,920 Climbing Washington Center
20:55 39.4419 -76.4272 231° Southwest 449 517 26,600 1,680 Climbing Washington Center
20:56 39.3514 -76.5606 229° Southwest 473 544 28,100 2,160 Climbing Washington Center
20:57 39.2669 -76.6933 231° Southwest 486 559 30,900 2,220 Climbing Washington Center
20:58 39.2033 -76.7942 231° Southwest 486 559 32,700 1,500 Climbing Washington Center
20:59 39.1081 -76.9425 230° Southwest 470 541 34,000 660 Climbing Washington Center
21:00 39.0358 -77.0508 229° Southwest 462 532 34,000  Level Washington Center
21:01 38.9408 -77.1556 221° Southwest 451 519 34,000  Level Washington Center
21:02 38.8456 -77.2603 221° Southwest 451 519 34,000  Level Washington Center
21:03 38.7503 -77.3592 219° Southwest 451 519 34,000  Level Washington Center
21:04 38.6550 -77.4633 221° Southwest 451 519 34,000  Level Washington Center
21:05 38.5636 -77.5644 221° Southwest 446 513 34,000  Level Washington Center
21:06 38.4681 -77.6681 220° Southwest 446 513 34,000  Level Washington Center
21:07 38.3767 -77.7689 221° Southwest 441 507 34,000  Level Washington Center
21:08 38.2850 -77.8692 221° Southwest 441 507 34,000  Level Washington Center
21:09 38.1894 -77.9694 220° Southwest 441 507 34,000  Level Washington Center
21:10 38.0956 -78.0692 220° Southwest 441 507 34,000  Level Washington Center
21:11 37.9933 -78.1739 219° Southwest 431 496 34,000  Level Washington Center
21:12 37.8994 -78.2656 218° Southwest 431 496 34,000  Level Washington Center
21:13 37.8014 -78.3592 217° Southwest 431 496 34,000  Level Washington Center
21:14 37.7161 -78.4403 217° Southwest 441 507 34,000  Level Washington Center
21:15 37.6181 -78.5308 216° Southwest 441 507 34,000  Level Washington Center
21:16 37.5197 -78.6214 216° Southwest 441 507 34,000  Level Washington Center
21:17 37.4256 -78.7117 217° Southwest 441 507 34,000  Level Washington Center
21:18 37.3275 -78.7992 215° Southwest 441 507 34,000  Level Washington Center
21:19 37.2225 -78.8992 217° Southwest 441 507 34,000  Level Washington Center
21:20 37.1219 -78.9911 216° Southwest 441 507 34,000  Level Washington Center
21:21 37.0253 -79.0806 216° Southwest 441 507 34,000  Level Washington Center
21:22 36.9267 -79.1697 216° Southwest 441 507 34,000  Level Washington Center
21:23 36.8322 -79.2611 218° Southwest 441 507 34,000  Level Washington Center
21:26 36.6231 -79.4475 216° Southwest 446 513 34,000  Level Atlanta Center
21:27 36.5183 -79.5439 217° Southwest 435 501 34,000  Level Atlanta Center
21:28 36.4233 -79.6292 216° Southwest 435 501 34,000  Level Atlanta Center
21:29 36.3264 -79.7222 218° Southwest 435 501 34,000  Level Atlanta Center
21:30 36.2333 -79.8044 215° Southwest 435 501 34,000  Level Atlanta Center
21:31 36.1464 -79.8811 215° Southwest 435 501 34,000  Level Atlanta Center
21:32 36.0381 -79.9456 206° Southwest 435 501 34,000  Level Atlanta Center
21:33 35.9292 -79.9997 202° Southwest 435 501 34,000  Level Atlanta Center
21:34 35.8164 -80.0592 203° Southwest 435 501 34,000  Level Atlanta Center
21:35 35.6933 -80.1189 202° Southwest 435 501 34,000  Level Atlanta Center
21:36 35.5825 -80.1778 203° Southwest 430 495 34,000  Level Atlanta Center
21:37 35.4736 -80.2314 202° Southwest 430 495 34,000  Level Atlanta Center
21:38 35.3728 -80.2819 202° Southwest 430 495 34,000  Level Atlanta Center
21:39 35.2639 -80.3353 202° Southwest 430 495 34,000  Level Atlanta Center
21:40 35.1508 -80.3911 202° Southwest 430 495 34,000  Level Atlanta Center
21:42 34.9319 -80.4997 202° Southwest 426 490 34,000  Level Jacksonville Center
21:43 34.8119 -80.5589 202° Southwest 426 490 34,000  Level Jacksonville Center
21:44 34.7086 -80.6119 203° Southwest 421 484 34,000  Level Jacksonville Center
21:45 34.6011 -80.6653 202° Southwest 421 484 34,000  Level Jacksonville Center
21:46 34.4853 -80.7161 200° South 427 491 34,000  Level Jacksonville Center
21:47 34.3775 -80.7642 200° South 433 498 34,000  Level Jacksonville Center
21:48 34.2742 -80.8219 205° Southwest 416 479 34,000  Level Jacksonville Center
21:49 34.1667 -80.8772 203° Southwest 410 472 34,000  Level Jacksonville Center
21:50 34.0569 -80.9250 200° South 415 478 34,000  Level Jacksonville Center
21:51 33.9492 -80.9772 202° Southwest 415 478 34,000  Level Jacksonville Center
21:52 33.8394 -81.0322 203° Southwest 415 478 34,000  Level Jacksonville Center
21:53 33.7294 -81.0819 201° Southwest 420 483 34,000  Level Jacksonville Center
21:54 33.6175 -81.1342 201° Southwest 432 497 34,000  Level Jacksonville Center
21:55 33.5056 -81.1739 196° South 432 497 34,000  Level Jacksonville Center
21:56 33.3911 -81.2108 195° South 427 491 34,000  Level Jacksonville Center
21:57 33.2747 -81.2453 194° South 427 491 34,000  Level Jacksonville Center
21:58 33.1603 -81.2822 195° South 427 491 34,000  Level Jacksonville Center
21:59 33.0439 -81.3189 195° South 427 491 34,000  Level Jacksonville Center
22:00 32.9294 -81.3531 194° South 432 497 34,000  Level Jacksonville Center
22:01 32.8131 -81.3897 195° South 432 497 34,000  Level Jacksonville Center
22:02 32.6967 -81.4261 195° South 432 497 34,000  Level Jacksonville Center
22:03 32.5864 -81.4625 196° South 420 483 34,000  Level Jacksonville Center
22:04 32.4825 -81.4936 194° South 420 483 34,000  Level Jacksonville Center
22:05 32.3575 -81.5300 194° South 420 483 34,000  Level Jacksonville Center
22:06 32.2556 -81.5636 196° South 420 483 34,000  Level Jacksonville Center
22:07 32.1308 -81.6022 195° South 425 489 34,000  Level Jacksonville Center
22:08 32.0161 -81.6356 194° South 425 489 34,000  Level Jacksonville Center
22:09 31.9164 -81.6664 195° South 411 473 34,000  Level Jacksonville Center
22:10 31.7914 -81.7047 195° South 425 489 34,000  Level Jacksonville Center
22:11 31.6936 -81.7328 194° South 419 482 34,000  Level Jacksonville Center
22:12 31.5686 -81.7708 195° South 414 476 34,000  Level Jacksonville Center
22:13 31.4583 -81.8039 194° South 414 476 34,000  Level Jacksonville Center
22:14 31.3583 -81.8342 194° South 414 476 34,000  Level Jacksonville Center
22:15 31.2439 -81.8719 196° South 414 476 34,000  Level Jacksonville Center
22:16 31.1356 -81.9047 195° South 414 476 34,000  Level Jacksonville Center
22:17 31.0272 -81.9350 193° South 414 476 34,000  Level Jacksonville Center
22:18 30.9167 -81.9675 194° South 414 476 34,000  Level Jacksonville Center
22:19 30.8064 -82.0025 195° South 409 471 34,000  Level Jacksonville Center
22:20 30.7000 -82.0350 195° South 409 471 34,000  Level Jacksonville Center
22:21 30.5875 -82.0672 194° South 414 476 34,000  Level Jacksonville Center
22:22 30.4686 -82.0972 192° South 409 471 34,000  Level Jacksonville Center
22:23 30.3583 -82.1319 195° South 414 476 34,000  Level Jacksonville Center
22:24 30.2478 -82.1639 194° South 413 475 34,000  Level Jacksonville Center
22:25 30.1350 -82.1842 189° South 413 475 34,000  Level Jacksonville Center
22:26 30.0225 -82.1944 185° South 413 475 34,000  Level Jacksonville Center
22:27 29.9075 -82.1978 181° South 408 470 34,000 -120 Level Jacksonville Center
22:28 29.7928 -82.2033 182° South 408 470 33,800 -1,560 Descending Jacksonville Center
22:29 29.6883 -82.2042 180° South 408 470 30,900 -3,300 Descending Jacksonville Center
22:30 29.5675 -82.2144 184° South 423 487 27,200 -1,980 Descending Jacksonville Center
22:31 29.4442 -82.2200 182° South 436 502 27,000 -180 Descending Jacksonville Center
22:32 29.3192 -82.2281 183° South 443 510 26,900 -7,020 Descending Jacksonville Center
22:33 29.1981 -82.2336 182° South 443 510 13,000 -3,600 Descending Jacksonville Center
22:34 29.0769 -82.2417 183° South 443 510 19,700 2,040 Climbing Jacksonville Center
22:35 28.9600 -82.2469 182° South 435 501 17,100 -2,700 Descending Jacksonville Center
22:36 28.8536 -82.2525 183° South 412 474 14,400 -1,800 Descending Jacksonville Center
22:38 28.6167 -82.2667 183° South 318 366 11,200 -1,200 Descending Tampa TRACON
22:39 28.5333 -82.2500 170° South 321 369 10,500 -960 Descending Tampa TRACON
22:40 28.4500 -82.2500 180° South 284 327 9,300 -1,500 Descending Tampa TRACON
22:41 28.3833 -82.2500 180° South 274 315 7,500 -1,200 Descending Tampa TRACON
22:42 28.3167 -82.3000 213° Southwest 275 316 7,000 -300 Descending Tampa TRACON
22:43 28.3000 -82.3833 257° West 295 339 7,000 -900 Level Tampa TRACON
22:44 28.2833 -82.4667 257° West 291 335 5,300 -1,020 Descending Tampa TRACON
22:45 28.2833 -82.5500 270° West 265 305 5,000 -360 Descending Tampa TRACON
22:46 28.2167 -82.5500 180° South 219 252 4,600 -840 Descending Tampa TRACON
22:47 28.1667 -82.5333 164° South 217 250 3,400 -1,200 Descending Tampa TRACON
22:48 28.1000 -82.5333 180° South 216 249 2,200 -1,200 Descending Tampa TRACON